Kezdőlap
METAR-TAF:

METAR-TAF

Repülőterek :

Donau

Neuburg, Németország

földrajzi szélesség: 48-43N, földrajzi hosszúság: 011-13E, magasság: 380 m

Jelenlegi meteorológiai megfigyelések

A jelentés 47 perccel ezelõtt készült, 00:20 UTC
Északkeleti szél 2 kt
Hőmérséklet 4°C
Páratartalom 70%
Légköri nyomás 1025 hPa
Látótávolság 10 km, vagy több

METAR: ETSN 050020Z 04002KT 9999 04/M01 Q1025 BLU+

Idő: 03:07 (01:07 UTC)

Előrejelzés

A jelentés 3 órával és 7 perccel ezelõtt készült, 22:00 UTC
Az előrejelzés 04-én 23 óra UTC és 05-én 08 óra UTC között érvényes
Keleti szél 4 kt
Látótávolság 10 km, vagy több
Kevés felhő 7000 lábon
Valószínűség 30%
05-én 02 óra UTC és 05-én 06 óra UTC között
Keleti szél 2 kt
Látótávolság: 6000 m
Derült ég
Száraz légköri homály

TAF: ETSN 042200Z 0423/0508 09004KT 9999 NSW FEW070 PROB30 0502/0506 09002KT 6000 HZ SKC BY ETGL

Meteorológiai megfigyelések és előrejelzések több, mint 4000 repülőtéren (METAR és TAF jelentéseket).

A térképen piros és sárga pontok jelzik az elérhető meteorológiai állomásokat.

Mozgassa az egeret a pont fölött, hogy megjelenjen az állomás neve.

Azután kattintson az időjárási megfigyelések és előrejelzések megtekintéséhez.

A térkép megváltoztatása: kattintson a fekete keresztel jelölt zöld gombra ráközelítéshez, a vonallal jelölt zöld gombra távolításhoz, vagy a zöld nyilakra a szomszédos térképek eléréséhez.


METAR-TAF: